Terminal Aerodrome Forecast
Issued by NWS

Home | Current Version | Previous Version | Text Only | Print | Product List | Glossary On
Versions: 1 2 3 4 5 6 7 8 9 10 11 12 13 14 15 16 17 18 19 20
483
FTUS43 KSGF 231120
TAFBBG
TAF
KBBG 231120Z 2312/2412 12012KT P6SM OVC040
     FM231500 15014G20KT P6SM SCT150
     FM240400 16010G17KT P6SM FEW250 WS020/18045KT=

USA.gov is the U.S. government's official web portal to all federal, state and local government web resources and services.